createdAt,value
2019-03-22T00:00:52.474Z,2.30
2019-03-22T00:03:23.699Z,2.40
2019-03-22T00:05:54.956Z,9.90
2019-03-22T00:08:26.210Z,4.47
2019-03-22T00:10:57.470Z,5.90
2019-03-22T00:13:28.696Z,5.63
2019-03-22T00:16:00.109Z,3.33
2019-03-22T00:18:31.374Z,2.60
2019-03-22T00:21:02.611Z,6.27
2019-03-22T00:23:33.977Z,2.27
2019-03-22T00:26:05.267Z,1.80
2019-03-22T00:28:36.532Z,5.30
2019-03-22T00:31:07.783Z,3.13
2019-03-22T00:33:39.378Z,4.07
2019-03-22T00:36:10.756Z,5.17
2019-03-22T00:38:41.993Z,1.83
2019-03-22T00:41:13.261Z,1.93
2019-03-22T00:43:44.490Z,3.33
2019-03-22T00:46:15.748Z,1.67
2019-03-22T00:48:46.956Z,3.83
2019-03-22T00:51:18.191Z,3.37
2019-03-22T00:53:49.465Z,2.30
2019-03-22T00:56:20.697Z,2.60
2019-03-22T00:58:51.996Z,2.33
2019-03-22T01:01:23.258Z,1.60
2019-03-22T01:03:54.505Z,3.83
2019-03-22T01:06:27.015Z,5.90
2019-03-22T01:08:58.266Z,4.97
2019-03-22T01:11:29.779Z,1.63
2019-03-22T01:14:01.039Z,1.57
2019-03-22T01:16:32.327Z,2.00
2019-03-22T01:19:03.716Z,1.80
2019-03-22T01:21:34.948Z,3.53
2019-03-22T01:24:06.201Z,2.30
2019-03-22T01:26:37.438Z,7.07
2019-03-22T01:29:08.649Z,2.30
2019-03-22T01:31:40.075Z,2.87
2019-03-22T01:34:11.287Z,2.40
2019-03-22T01:36:42.564Z,1.60
2019-03-22T01:39:13.920Z,2.33
2019-03-22T01:41:46.377Z,1.73
2019-03-22T01:44:17.752Z,6.73
2019-03-22T01:46:49.010Z,2.10
2019-03-22T01:49:20.255Z,1.43
2019-03-22T01:51:51.547Z,1.93
2019-03-22T01:54:22.888Z,1.80
2019-03-22T01:56:54.167Z,1.60
2019-03-22T01:59:25.427Z,1.40
2019-03-22T02:01:56.785Z,2.27
2019-03-22T02:04:28.208Z,2.00
2019-03-22T02:06:59.473Z,4.40
2019-03-22T02:09:30.989Z,1.53
2019-03-22T02:12:02.212Z,2.60
2019-03-22T02:14:33.441Z,3.00
2019-03-22T02:17:04.674Z,1.93
2019-03-22T02:19:35.932Z,1.80
2019-03-22T02:22:07.362Z,1.37
2019-03-22T02:24:38.764Z,2.23
2019-03-22T02:27:10.042Z,6.20
2019-03-22T02:29:41.324Z,1.70
2019-03-22T02:32:12.607Z,1.63
2019-03-22T02:34:43.897Z,1.70
2019-03-22T02:37:15.135Z,5.63
2019-03-22T02:39:46.435Z,2.37
2019-03-22T02:42:17.904Z,8.40
2019-03-22T02:44:49.109Z,2.00
2019-03-22T02:47:20.640Z,1.70
2019-03-22T02:49:51.833Z,3.07
2019-03-22T02:52:23.160Z,3.27
2019-03-22T02:54:54.534Z,3.10
2019-03-22T02:57:25.759Z,2.57
2019-03-22T02:59:56.994Z,2.43
2019-03-22T03:02:28.247Z,2.43
2019-03-22T03:04:59.587Z,1.63
2019-03-22T03:07:30.938Z,4.10
2019-03-22T03:10:02.232Z,11.73
2019-03-22T03:12:33.420Z,3.07
2019-03-22T03:15:05.180Z,2.07
2019-03-22T03:17:36.646Z,5.33
2019-03-22T03:20:10.336Z,3.80
2019-03-22T03:22:41.588Z,5.90
2019-03-22T03:25:13.822Z,1.93
2019-03-22T03:27:45.166Z,2.50
2019-03-22T03:30:17.754Z,2.57
2019-03-22T03:32:49.264Z,3.70
2019-03-22T03:35:20.711Z,3.10
2019-03-22T03:37:52.054Z,1.90
2019-03-22T03:40:23.386Z,3.10
2019-03-22T03:42:54.644Z,2.90
2019-03-22T03:45:45.098Z,3.33
2019-03-22T03:48:16.369Z,2.63
2019-03-22T03:50:47.764Z,3.73
2019-03-22T03:53:18.998Z,2.23
2019-03-22T03:55:50.291Z,2.57
2019-03-22T03:58:21.532Z,2.67
2019-03-22T04:00:52.801Z,3.43
2019-03-22T04:03:24.053Z,4.20
2019-03-22T04:05:55.394Z,2.60
2019-03-22T04:08:26.729Z,3.70
2019-03-22T04:10:57.966Z,2.10
2019-03-22T04:13:29.596Z,2.70
2019-03-22T04:16:00.829Z,4.83
2019-03-22T04:18:32.034Z,4.93
2019-03-22T04:21:03.298Z,4.10
2019-03-22T04:23:34.485Z,5.00
2019-03-22T04:26:05.722Z,3.57
2019-03-22T04:28:36.932Z,5.07
2019-03-22T04:31:11.575Z,8.20
2019-03-22T04:33:42.778Z,3.53
2019-03-22T04:36:14.026Z,12.97
2019-03-22T04:38:45.442Z,3.10
2019-03-22T04:41:16.662Z,2.63
2019-03-22T04:43:47.983Z,3.70
2019-03-22T04:46:20.210Z,3.13
2019-03-22T04:48:52.563Z,6.80
2019-03-22T04:51:24.478Z,6.33
2019-03-22T04:54:01.454Z,6.97
2019-03-22T04:56:35.646Z,8.10
2019-03-22T04:59:18.876Z,3.03
2019-03-22T05:01:46.020Z,14.73
2019-03-22T05:04:17.760Z,8.20
2019-03-22T05:06:50.952Z,2.40
2019-03-22T05:09:25.425Z,10.30
2019-03-22T05:11:58.392Z,4.77
2019-03-22T05:14:30.969Z,6.30
2019-03-22T05:17:04.169Z,3.57
2019-03-22T05:19:39.061Z,3.33
2019-03-22T05:22:12.375Z,3.33
2019-03-22T05:24:45.357Z,2.80
2019-03-22T05:27:17.901Z,7.73
2019-03-22T05:29:50.976Z,4.93
2019-03-22T05:32:22.349Z,5.23
2019-03-22T05:34:53.581Z,5.20
2019-03-22T05:37:24.786Z,4.80
2019-03-22T05:39:56.041Z,7.20
2019-03-22T05:42:27.295Z,8.57
2019-03-22T05:44:58.532Z,5.43
2019-03-22T05:47:30.000Z,5.73
2019-03-22T05:50:01.338Z,3.10
2019-03-22T05:52:32.704Z,5.70
2019-03-22T05:55:04.092Z,12.90
2019-03-22T05:57:35.367Z,3.00
2019-03-22T06:00:07.929Z,9.10
2019-03-22T06:02:39.396Z,3.20
2019-03-22T06:05:10.599Z,3.43
2019-03-22T06:07:41.877Z,3.67
2019-03-22T06:10:13.335Z,3.80
2019-03-22T06:12:44.591Z,5.10
2019-03-22T06:15:15.844Z,3.63
2019-03-22T06:17:51.582Z,2.83
2019-03-22T06:20:20.063Z,8.90
2019-03-22T06:22:51.290Z,9.93
2019-03-22T06:25:22.597Z,4.60
2019-03-22T06:27:54.069Z,7.60
2019-03-22T06:30:25.456Z,5.50
2019-03-22T06:32:56.749Z,20.80
2019-03-22T06:35:27.955Z,3.57
2019-03-22T06:37:59.242Z,5.13
2019-03-22T06:40:30.543Z,3.67
2019-03-22T06:43:01.790Z,4.50
2019-03-22T06:45:33.018Z,5.70
2019-03-22T06:48:04.262Z,2.60
2019-03-22T06:50:35.524Z,3.07
2019-03-22T06:53:06.814Z,4.73
2019-03-22T06:55:38.116Z,3.73
2019-03-22T06:58:09.361Z,4.13
2019-03-22T07:00:40.618Z,3.97
2019-03-22T07:03:11.870Z,2.07
2019-03-22T07:05:43.212Z,2.43
2019-03-22T07:08:14.466Z,4.10
2019-03-22T07:10:45.684Z,5.50
2019-03-22T07:13:16.915Z,2.30
2019-03-22T07:15:48.267Z,2.47
2019-03-22T07:18:19.519Z,2.80
2019-03-22T07:20:50.721Z,7.63
2019-03-22T07:23:21.997Z,17.77
2019-03-22T07:25:53.329Z,9.30
2019-03-22T07:28:24.620Z,5.13
2019-03-22T07:30:55.891Z,4.60
2019-03-22T07:33:27.315Z,3.73
2019-03-22T07:35:58.610Z,5.13
2019-03-22T07:38:29.851Z,5.53
2019-03-22T07:41:01.135Z,3.70
2019-03-22T07:43:32.381Z,4.27
2019-03-22T07:46:03.613Z,5.73
2019-03-22T07:48:34.856Z,5.73
2019-03-22T07:51:06.144Z,4.23
2019-03-22T07:53:37.434Z,8.70
2019-03-22T07:56:08.695Z,5.27
2019-03-22T07:58:39.947Z,10.50
2019-03-22T08:01:11.249Z,14.73
2019-03-22T08:03:42.494Z,7.93
2019-03-22T08:06:13.733Z,9.33
2019-03-22T08:08:44.992Z,6.93
2019-03-22T08:11:16.238Z,4.50
2019-03-22T08:13:47.562Z,6.13
2019-03-22T08:16:18.825Z,5.20
2019-03-22T08:18:50.129Z,11.90
2019-03-22T08:21:21.386Z,5.83
2019-03-22T08:23:52.623Z,5.80
2019-03-22T08:26:23.918Z,7.90
2019-03-22T08:28:55.183Z,5.97
2019-03-22T08:31:26.399Z,6.77
2019-03-22T08:33:57.667Z,7.07
2019-03-22T08:36:30.007Z,5.03
2019-03-22T08:39:01.310Z,9.63
2019-03-22T08:41:32.506Z,5.70
2019-03-22T08:44:03.773Z,7.20
2019-03-22T08:46:35.155Z,9.13
2019-03-22T08:49:09.366Z,6.20
2019-03-22T08:51:39.501Z,11.93
2019-03-22T08:54:10.826Z,6.07
2019-03-22T08:56:42.163Z,9.20
2019-03-22T08:59:13.666Z,13.00
2019-03-22T09:01:44.938Z,13.27
2019-03-22T09:04:16.224Z,10.93
2019-03-22T09:07:15.382Z,9.73
2019-03-22T09:09:46.676Z,11.47
2019-03-22T09:12:17.934Z,11.63
2019-03-22T09:14:49.204Z,8.77
2019-03-22T09:17:20.713Z,10.87
2019-03-22T09:19:51.967Z,6.87
2019-03-22T09:22:23.226Z,12.33
2019-03-22T09:24:54.489Z,9.60
2019-03-22T09:27:25.743Z,14.07
2019-03-22T09:29:57.039Z,11.23
2019-03-22T09:32:28.246Z,9.50
2019-03-22T09:34:59.853Z,8.37
2019-03-22T09:37:31.154Z,7.30
2019-03-22T09:40:02.434Z,10.38
2019-03-22T09:42:33.790Z,5.03
2019-03-22T09:45:05.207Z,9.23
2019-03-22T09:47:36.419Z,6.03
2019-03-22T09:50:09.461Z,8.97
2019-03-22T09:52:40.713Z,8.47
2019-03-22T09:55:14.123Z,8.90
2019-03-22T09:57:45.035Z,6.57
2019-03-22T10:00:29.996Z,6.70
2019-03-22T10:03:01.532Z,7.83
2019-03-22T10:05:32.825Z,14.53
2019-03-22T10:08:04.144Z,8.60
2019-03-22T10:10:35.386Z,9.53
2019-03-22T10:13:06.817Z,8.83
2019-03-22T10:15:38.019Z,5.97
2019-03-22T10:18:09.351Z,8.70
2019-03-22T10:20:40.622Z,6.20
2019-03-22T10:23:11.943Z,7.70
2019-03-22T10:25:43.427Z,9.77
2019-03-22T10:28:14.719Z,11.93
2019-03-22T10:30:46.005Z,6.67
2019-03-22T10:33:22.443Z,8.87
2019-03-22T10:35:50.246Z,8.20
2019-03-22T10:38:31.098Z,10.23
2019-03-22T10:40:54.751Z,9.43
2019-03-22T10:43:25.955Z,9.40
2019-03-22T10:45:57.370Z,9.63
2019-03-22T10:48:28.551Z,10.57
2019-03-22T10:50:59.869Z,8.03
2019-03-22T10:53:31.124Z,7.40
2019-03-22T10:56:02.426Z,11.13
2019-03-22T10:58:33.674Z,7.50
2019-03-22T11:01:08.281Z,8.43
2019-03-22T11:03:39.466Z,9.23
2019-03-22T11:06:10.810Z,7.30
2019-03-22T11:08:42.024Z,11.93
2019-03-22T11:11:13.321Z,12.50
2019-03-22T11:13:44.620Z,9.37
2019-03-22T11:16:16.008Z,13.50
2019-03-22T11:18:47.421Z,9.43
2019-03-22T11:21:18.658Z,9.60
2019-03-22T11:23:49.885Z,10.60
2019-03-22T11:26:21.154Z,13.10
2019-03-22T11:28:52.529Z,8.83
2019-03-22T11:31:28.613Z,12.27
2019-03-22T11:33:56.801Z,10.27
2019-03-22T11:36:28.021Z,11.20
2019-03-22T11:38:59.272Z,9.30
2019-03-22T11:41:30.504Z,9.90
2019-03-22T11:44:01.749Z,13.50
2019-03-22T11:46:33.017Z,15.67
2019-03-22T11:49:04.399Z,12.67
2019-03-22T11:51:35.665Z,15.83
2019-03-22T11:54:07.431Z,14.27
2019-03-22T11:56:38.731Z,13.60
2019-03-22T11:59:09.993Z,21.73
2019-03-22T12:01:41.273Z,10.03
2019-03-22T12:04:12.570Z,18.50
2019-03-22T12:06:43.807Z,12.87
2019-03-22T12:09:15.154Z,16.67
2019-03-22T12:11:46.520Z,11.50
2019-03-22T12:14:17.799Z,14.67
2019-03-22T12:16:49.082Z,14.30
2019-03-22T12:19:20.330Z,17.53
2019-03-22T12:21:51.592Z,12.53
2019-03-22T12:24:22.858Z,12.93
2019-03-22T12:26:54.121Z,14.60
2019-03-22T12:29:25.377Z,15.87
2019-03-22T12:31:56.849Z,16.50
2019-03-22T12:34:28.112Z,17.63
2019-03-22T12:36:59.328Z,15.87
2019-03-22T12:39:30.567Z,17.13
2019-03-22T12:42:01.795Z,15.03
2019-03-22T12:44:33.065Z,17.70
2019-03-22T12:47:04.316Z,15.37
2019-03-22T12:49:35.561Z,13.93
2019-03-22T12:52:06.823Z,15.53
2019-03-22T12:54:38.045Z,11.40
2019-03-22T12:57:09.374Z,16.50
2019-03-22T12:59:40.760Z,20.30
2019-03-22T13:02:12.305Z,15.23
2019-03-22T13:04:43.568Z,12.03
2019-03-22T13:07:14.889Z,16.50
2019-03-22T13:09:46.301Z,10.20
2019-03-22T13:12:17.538Z,13.83
2019-03-22T13:14:48.867Z,16.93
2019-03-22T13:17:20.099Z,14.87
2019-03-22T13:19:51.357Z,11.70
2019-03-22T13:22:22.608Z,12.80
2019-03-22T13:24:53.852Z,17.27
2019-03-22T13:27:25.093Z,16.73
2019-03-22T13:29:56.371Z,13.27
2019-03-22T13:32:27.652Z,14.30
2019-03-22T13:34:58.866Z,11.60
2019-03-22T13:37:30.323Z,16.80
2019-03-22T13:40:01.772Z,17.40
2019-03-22T13:42:33.023Z,13.20
2019-03-22T13:45:04.687Z,11.20
2019-03-22T13:47:35.914Z,13.57
2019-03-22T13:50:09.127Z,13.80
2019-03-22T13:52:40.348Z,6.17
2019-03-22T13:55:12.027Z,14.73
2019-03-22T13:57:43.336Z,15.67
2019-03-22T14:00:15.428Z,25.27
2019-03-22T14:02:46.711Z,13.87
2019-03-22T14:05:18.007Z,11.10
2019-03-22T14:07:49.363Z,11.03
2019-03-22T14:10:34.589Z,13.70
2019-03-22T14:13:07.020Z,11.03
2019-03-22T14:15:38.293Z,10.43
2019-03-22T14:18:09.549Z,12.57
2019-03-22T14:20:40.867Z,13.30
2019-03-22T14:23:12.246Z,12.40
2019-03-22T14:25:43.568Z,14.27
2019-03-22T14:28:20.058Z,12.63
2019-03-22T14:30:51.317Z,12.97
2019-03-22T14:33:22.546Z,12.50
2019-03-22T14:35:55.064Z,9.07
2019-03-22T14:38:26.319Z,10.60
2019-03-22T14:40:57.606Z,16.10
2019-03-22T14:43:28.930Z,10.97
2019-03-22T14:46:00.345Z,16.70
2019-03-22T14:48:31.596Z,11.30
2019-03-22T14:51:02.934Z,14.53
2019-03-22T14:53:34.223Z,10.13
2019-03-22T14:56:05.452Z,12.57
2019-03-22T14:58:36.776Z,10.20
2019-03-22T15:01:08.103Z,9.33
2019-03-22T15:03:39.509Z,13.10
2019-03-22T15:06:10.800Z,9.00
2019-03-22T15:08:42.106Z,9.87
2019-03-22T15:11:13.446Z,9.03
2019-03-22T15:13:50.319Z,14.47
2019-03-22T15:16:43.765Z,11.53
2019-03-22T15:19:35.102Z,8.50
2019-03-22T15:22:18.070Z,7.30
2019-03-22T15:25:16.475Z,8.37
2019-03-22T15:28:16.300Z,10.73
2019-03-22T15:31:06.434Z,11.40
2019-03-22T15:33:49.337Z,10.17
2019-03-22T15:36:46.757Z,7.37
2019-03-22T15:39:45.887Z,9.23
2019-03-22T15:42:17.502Z,13.43
2019-03-22T15:44:48.866Z,14.03
2019-03-22T15:47:20.154Z,11.07
2019-03-22T15:49:51.410Z,13.87
2019-03-22T15:52:22.788Z,9.23
2019-03-22T15:54:54.043Z,10.67
2019-03-22T15:57:25.418Z,17.93
2019-03-22T15:59:56.648Z,12.30
2019-03-22T16:02:28.097Z,7.40
2019-03-22T16:04:59.457Z,10.70
2019-03-22T16:07:30.730Z,9.10
2019-03-22T16:10:01.990Z,7.00
2019-03-22T16:12:33.259Z,13.50
2019-03-22T16:15:05.054Z,15.40
2019-03-22T16:17:36.420Z,4.20
2019-03-22T16:20:09.314Z,4.63
2019-03-22T16:22:40.577Z,3.70
2019-03-22T16:25:12.871Z,14.67
2019-03-22T16:27:44.164Z,8.40
2019-03-22T16:30:15.557Z,2.93
2019-03-22T16:32:46.893Z,3.03
2019-03-22T16:35:18.864Z,10.03
2019-03-22T16:37:50.222Z,2.50
2019-03-22T16:40:24.400Z,4.50
2019-03-22T16:42:54.652Z,6.33
2019-03-22T16:45:40.689Z,4.07
2019-03-22T16:48:11.990Z,3.87
2019-03-22T16:50:43.226Z,3.27
2019-03-22T16:53:14.500Z,5.83
2019-03-22T16:55:45.796Z,4.40
2019-03-22T16:58:17.033Z,3.30
2019-03-22T17:00:49.863Z,5.37
2019-03-22T17:03:21.390Z,13.80
2019-03-22T17:05:55.630Z,4.20
2019-03-22T17:08:27.002Z,2.33
2019-03-22T17:10:58.346Z,4.30
2019-03-22T17:13:29.672Z,6.80
2019-03-22T17:16:02.024Z,6.40
2019-03-22T17:18:33.480Z,5.80
2019-03-22T17:21:04.796Z,11.23
2019-03-22T17:23:36.364Z,5.60
2019-03-22T17:26:07.678Z,3.33
2019-03-22T17:28:38.968Z,5.27
2019-03-22T17:31:10.221Z,2.40
2019-03-22T17:33:41.539Z,7.90
2019-03-22T17:36:12.811Z,9.60
2019-03-22T17:38:44.067Z,3.50
2019-03-22T17:41:15.318Z,2.60
2019-03-22T17:43:46.705Z,6.47
2019-03-22T17:46:17.994Z,4.50
2019-03-22T17:48:49.339Z,4.10
2019-03-22T17:51:20.641Z,6.87
2019-03-22T17:53:51.920Z,8.53
2019-03-22T17:56:23.172Z,4.33
2019-03-22T17:58:54.435Z,4.13
2019-03-22T18:01:25.675Z,5.80
2019-03-22T18:03:56.917Z,5.20
2019-03-22T18:06:28.100Z,9.00
2019-03-22T18:08:59.410Z,1.87
2019-03-22T18:11:30.739Z,3.73
2019-03-22T18:14:02.114Z,6.00
2019-03-22T18:16:33.441Z,6.53
2019-03-22T18:19:04.735Z,6.40
2019-03-22T18:21:35.989Z,3.93
2019-03-22T18:24:07.246Z,2.27
2019-03-22T18:26:38.525Z,7.20
2019-03-22T18:29:09.757Z,5.07
2019-03-22T18:31:41.063Z,3.80
2019-03-22T18:34:12.385Z,3.83
2019-03-22T18:36:43.633Z,4.00
2019-03-22T18:39:15.009Z,3.77
2019-03-22T18:41:46.292Z,3.87
2019-03-22T18:44:17.630Z,2.87
2019-03-22T18:46:48.906Z,3.53
2019-03-22T18:49:20.239Z,2.40
2019-03-22T18:51:51.467Z,5.30
2019-03-22T18:54:22.800Z,2.20
2019-03-22T18:56:54.059Z,3.00
2019-03-22T18:59:25.313Z,2.03
2019-03-22T19:01:56.839Z,3.60
2019-03-22T19:04:28.101Z,2.50
2019-03-22T19:06:59.433Z,2.43
2019-03-22T19:09:30.689Z,5.07
2019-03-22T19:12:01.995Z,11.43
2019-03-22T19:14:33.294Z,9.90
2019-03-22T19:17:04.623Z,6.30
2019-03-22T19:19:35.997Z,7.57
2019-03-22T19:22:07.346Z,14.53
2019-03-22T19:24:38.560Z,3.50
2019-03-22T19:27:09.845Z,3.57
2019-03-22T19:29:41.198Z,3.53
2019-03-22T19:32:13.805Z,5.53
2019-03-22T19:34:53.870Z,4.13
2019-03-22T19:37:18.380Z,7.70
2019-03-22T19:39:49.699Z,6.40
2019-03-22T19:42:21.173Z,5.03
2019-03-22T19:44:52.489Z,3.90
2019-03-22T19:47:23.739Z,7.27
2019-03-22T19:49:54.980Z,3.90
2019-03-22T19:52:26.256Z,2.47
2019-03-22T19:54:57.489Z,5.37
2019-03-22T19:57:29.146Z,4.50
2019-03-22T20:00:00.717Z,6.33
2019-03-22T20:02:32.114Z,4.40
2019-03-22T20:05:05.025Z,7.93
2019-03-22T20:07:36.720Z,5.63
2019-03-22T20:10:10.052Z,6.17
2019-03-22T20:12:41.593Z,6.13
2019-03-22T20:15:13.672Z,2.70
2019-03-22T20:17:45.874Z,12.10
2019-03-22T20:20:17.464Z,4.03
2019-03-22T20:22:49.358Z,3.20
2019-03-22T20:25:21.073Z,3.50
2019-03-22T20:27:52.359Z,2.33
2019-03-22T20:30:24.439Z,4.47
2019-03-22T20:32:55.935Z,4.40
2019-03-22T20:35:27.414Z,5.03
2019-03-22T20:37:59.471Z,4.50
2019-03-22T20:40:31.407Z,2.73
2019-03-22T20:43:02.742Z,6.83
2019-03-22T20:45:34.088Z,2.40
2019-03-22T20:48:05.427Z,6.67
2019-03-22T20:50:36.807Z,6.23
2019-03-22T20:53:08.160Z,11.27
2019-03-22T20:55:39.472Z,6.20
2019-03-22T20:58:10.944Z,4.27
2019-03-22T21:00:42.445Z,9.73
2019-03-22T21:03:13.709Z,2.70
2019-03-22T21:05:47.128Z,3.03
2019-03-22T21:08:18.418Z,5.27
2019-03-22T21:10:50.038Z,3.97
2019-03-22T21:13:21.497Z,6.70
2019-03-22T21:15:53.020Z,3.73
2019-03-22T21:18:24.267Z,8.17
2019-03-22T21:20:55.499Z,3.40
2019-03-22T21:23:35.966Z,3.90
2019-03-22T21:25:59.955Z,6.93
2019-03-22T21:28:31.188Z,6.40
2019-03-22T21:31:02.589Z,7.43
2019-03-22T21:34:09.196Z,3.90
2019-03-22T21:36:40.744Z,7.30
2019-03-22T21:39:12.078Z,3.30
2019-03-22T21:41:43.472Z,7.13
2019-03-22T21:44:14.830Z,5.90
2019-03-22T21:46:46.060Z,5.10
2019-03-22T21:49:17.363Z,6.03
2019-03-22T21:51:48.687Z,5.50
2019-03-22T21:54:20.005Z,6.57
2019-03-22T21:56:51.495Z,4.57
2019-03-22T21:59:22.711Z,7.90
2019-03-22T22:01:54.013Z,9.40
2019-03-22T22:04:25.266Z,5.63
2019-03-22T22:06:56.580Z,6.83
2019-03-22T22:09:27.975Z,10.80
2019-03-22T22:11:59.224Z,5.40
2019-03-22T22:14:40.451Z,5.77
2019-03-22T22:17:03.404Z,4.83
2019-03-22T22:19:34.654Z,6.27
2019-03-22T22:22:05.906Z,8.37
2019-03-22T22:24:38.461Z,6.40
2019-03-22T22:27:14.138Z,5.13
2019-03-22T22:29:42.955Z,7.83
2019-03-22T22:32:14.149Z,6.80
2019-03-22T22:34:45.425Z,5.80
2019-03-22T22:37:16.666Z,5.43
2019-03-22T22:39:47.893Z,6.50
2019-03-22T22:42:19.148Z,5.03
2019-03-22T22:44:50.360Z,9.23
2019-03-22T22:47:21.624Z,11.50
2019-03-22T22:49:52.981Z,6.53
2019-03-22T22:52:24.281Z,6.90
2019-03-22T22:54:55.515Z,6.70
2019-03-22T22:57:26.823Z,3.30
2019-03-22T22:59:58.173Z,8.87
2019-03-22T23:02:29.531Z,6.23
2019-03-22T23:05:00.769Z,5.70
2019-03-22T23:07:32.059Z,6.13
2019-03-22T23:10:03.401Z,12.97
2019-03-22T23:12:34.727Z,6.10
2019-03-22T23:15:06.178Z,5.70
2019-03-22T23:17:37.418Z,5.60
2019-03-22T23:20:09.182Z,4.10
2019-03-22T23:22:40.437Z,6.30
2019-03-22T23:25:11.730Z,5.27
2019-03-22T23:27:42.978Z,3.83
2019-03-22T23:30:14.750Z,9.53
2019-03-22T23:32:46.015Z,17.33
2019-03-22T23:35:17.273Z,5.93
2019-03-22T23:37:48.567Z,9.20
2019-03-22T23:40:19.831Z,11.43
2019-03-22T23:42:51.115Z,10.40
2019-03-22T23:45:22.372Z,5.37
2019-03-22T23:47:53.721Z,5.90
2019-03-22T23:50:24.941Z,5.57
2019-03-22T23:52:56.130Z,7.77
2019-03-22T23:55:27.383Z,6.93
2019-03-22T23:57:58.597Z,5.97
